Time;durP1;ratioP1;P1;durP2;ratioP2;P2;SDS_P1;SDS_P2;PMS_P1;PMS_P2;Temp;Humidity;BMP_temperature;BMP_pressure;BME280_temperature;BME280_humidity;BME280_pressure;Samples;Min_cycle;Max_cycle;Signal;HPM_P1;HPM_P2
2021/05/29 00:00:46;;;;;;;13.15;8.85;;;;;;;12.06;71.43;100639.03;4957765;29;20043;-57
2021/05/29 00:03:15;;;;;;;11.77;8.30;;;;;;;12.06;71.64;100635.53;4957969;28;20051;-56
2021/05/29 00:05:41;;;;;;;13.63;9.30;;;;;;;12.06;71.49;100640.75;4956601;29;20567;-57
2021/05/29 00:08:07;;;;;;;12.30;8.15;;;;;;;12.06;71.76;100641.63;4940557;29;20503;-57
2021/05/29 00:10:34;;;;;;;10.00;8.25;;;;;;;12.05;71.40;100636.38;4956544;29;20039;-57
2021/05/29 00:13:00;;;;;;;12.55;8.40;;;;;;;12.04;71.38;100635.53;4956059;29;20118;-56
2021/05/29 00:15:27;;;;;;;12.68;8.55;;;;;;;12.05;71.80;100636.38;4957517;28;20487;-56
2021/05/29 00:17:56;;;;;;;12.68;7.65;;;;;;;12.04;71.56;100638.13;4956698;28;20149;-56
2021/05/29 00:20:22;;;;;;;13.70;8.50;;;;;;;12.03;71.26;100639.81;4956497;28;20043;-56
2021/05/29 00:22:50;;;;;;;13.70;8.07;;;;;;;12.05;71.32;100638.97;4957074;28;20039;-56
2021/05/29 00:25:16;;;;;;;12.02;8.65;;;;;;;12.03;71.56;100642.44;4957398;28;20494;-56
2021/05/29 00:27:44;;;;;;;14.23;9.73;;;;;;;12.02;71.27;100638.06;4939822;29;20027;-57
2021/05/29 00:30:11;;;;;;;11.57;8.73;;;;;;;12.03;71.38;100639.81;4957235;28;20108;-56
2021/05/29 00:32:38;;;;;;;12.75;9.02;;;;;;;12.03;71.51;100641.56;4956940;28;20043;-56
2021/05/29 00:35:07;;;;;;;15.52;9.35;;;;;;;12.03;71.43;100639.81;4957070;28;20486;-56
2021/05/29 00:37:33;;;;;;;13.02;8.88;;;;;;;12.04;71.57;100635.53;4956222;28;20395;-56
2021/05/29 00:39:58;;;;;;;14.18;9.30;;;;;;;12.02;71.14;100632.88;4957183;28;20035;-56
2021/05/29 00:42:24;;;;;;;12.57;8.13;;;;;;;12.03;71.44;100631.16;4955853;28;20509;-57
2021/05/29 00:44:53;;;;;;;18.20;9.77;;;;;;;12.02;71.60;100629.41;4956340;29;20039;-57
2021/05/29 00:47:23;;;;;;;12.88;8.27;;;;;;;12.02;71.38;100637.22;4955647;28;20042;-56
2021/05/29 00:49:52;;;;;;;14.02;8.23;;;;;;;12.01;71.56;100628.53;4957463;28;20031;-56
2021/05/29 00:52:22;;;;;;;15.13;8.38;;;;;;;12.03;71.56;100634.63;4956515;28;20558;-56
2021/05/29 00:54:53;;;;;;;11.57;8.30;;;;;;;12.02;71.18;100632.00;4956419;28;20499;-56
2021/05/29 00:57:30;;;;;;;12.27;8.45;;;;;;;12.00;71.21;100626.78;4957076;28;20058;-58
2021/05/29 00:59:56;;;;;;;10.80;8.18;;;;;;;12.01;71.48;100623.31;4956779;28;20051;-56
2021/05/29 01:02:24;;;;;;;11.95;8.95;;;;;;;12.00;71.54;100618.13;4955567;28;20069;-56
2021/05/29 01:04:53;;;;;;;10.25;8.07;;;;;;;12.00;71.27;100618.13;4955547;28;20106;-56
2021/05/29 01:07:18;;;;;;;13.32;8.38;;;;;;;11.99;71.31;100622.41;4956134;28;20043;-56
2021/05/29 01:09:47;;;;;;;12.80;9.48;;;;;;;11.99;71.15;100621.56;4956026;29;20574;-56
2021/05/29 01:12:17;;;;;;;13.98;8.60;;;;;;;11.98;71.26;100620.69;4956536;28;20483;-57
2021/05/29 01:14:52;;;;;;;9.90;7.75;;;;;;;11.98;70.97;100620.69;4956276;28;20073;-58
2021/05/29 01:17:18;;;;;;;10.80;8.35;;;;;;;11.98;71.11;100615.50;4955310;29;20047;-57
2021/05/29 01:19:46;;;;;;;14.25;9.93;;;;;;;11.98;70.79;100622.38;4955222;29;20495;-56
2021/05/29 01:22:32;;;;;;;11.20;8.90;;;;;;;11.97;71.34;100623.22;4955217;28;20105;-56
2021/05/29 01:25:03;;;;;;;11.35;8.20;;;;;;;11.96;71.00;100622.34;4970814;28;20035;-56
2021/05/29 01:27:33;;;;;;;14.63;9.65;;;;;;;11.96;71.47;100624.06;4956515;28;20471;-56
2021/05/29 01:29:59;;;;;;;14.45;8.40;;;;;;;11.96;71.21;100621.47;4955016;29;20078;-56
2021/05/29 01:32:33;;;;;;;15.80;9.95;;;;;;;11.96;71.15;100624.94;4955091;29;20074;-57
2021/05/29 01:35:05;;;;;;;14.07;9.38;;;;;;;11.95;71.29;100625.78;4955976;28;20114;-56
2021/05/29 01:37:31;;;;;;;14.07;9.55;;;;;;;11.95;71.08;100636.19;4955512;29;20122;-57
2021/05/29 01:39:57;;;;;;;13.13;9.27;;;;;;;11.95;71.27;100628.38;4956091;28;20123;-56
2021/05/29 01:42:26;;;;;;;12.77;9.30;;;;;;;11.94;70.86;100626.63;4954730;28;20043;-57
2021/05/29 01:44:53;;;;;;;12.98;9.63;;;;;;;11.94;71.10;100633.53;4953959;28;20042;-57
2021/05/29 01:47:18;;;;;;;12.27;9.48;;;;;;;11.95;71.37;100632.69;4955367;28;20039;-56
2021/05/29 01:49:47;;;;;;;12.15;9.20;;;;;;;11.94;71.03;100633.53;4954574;28;20042;-56
2021/05/29 01:52:13;;;;;;;10.93;8.32;;;;;;;11.93;70.90;100637.88;4954551;28;20042;-56
2021/05/29 01:54:38;;;;;;;11.77;9.85;;;;;;;11.92;71.04;100638.72;4955872;28;20070;-56
2021/05/29 01:57:07;;;;;;;15.02;9.63;;;;;;;11.92;70.77;100646.50;4954562;28;20039;-57
2021/05/29 01:59:40;;;;;;;13.02;9.02;;;;;;;11.91;71.49;100639.56;4955716;28;20039;-57
2021/05/29 02:02:08;;;;;;;11.82;8.52;;;;;;;11.91;71.19;100649.94;4954169;29;20075;-56
2021/05/29 02:04:33;;;;;;;11.63;8.90;;;;;;;11.91;71.16;100649.94;4955377;28;20035;-57
2021/05/29 02:07:06;;;;;;;11.55;8.90;;;;;;;11.91;71.37;100649.94;4955826;29;20437;-56
2021/05/29 02:09:32;;;;;;;12.80;9.52;;;;;;;11.90;71.06;100649.94;4954685;29;20403;-57
2021/05/29 02:12:00;;;;;;;13.40;10.15;;;;;;;11.91;71.27;100654.28;4955498;28;20035;-56
2021/05/29 02:14:25;;;;;;;11.57;8.77;;;;;;;11.88;71.39;100655.06;4954100;28;20130;-56
2021/05/29 02:16:56;;;;;;;13.65;9.73;;;;;;;11.87;71.25;100649.00;4955972;28;20125;-56
2021/05/29 02:19:24;;;;;;;12.13;9.23;;;;;;;11.87;71.38;100653.31;4954341;29;20039;-56
2021/05/29 02:21:50;;;;;;;13.93;8.00;;;;;;;11.87;71.16;100650.72;4954196;29;20126;-56
2021/05/29 02:24:15;;;;;;;11.68;9.00;;;;;;;11.84;71.35;100654.13;4938059;29;20135;-56
2021/05/29 02:26:43;;;;;;;12.15;8.27;;;;;;;11.84;70.88;100658.44;4954083;29;20095;-56
2021/05/29 02:29:11;;;;;;;12.32;8.00;;;;;;;11.83;71.09;100661.91;4955108;28;20044;-57
2021/05/29 02:31:37;;;;;;;13.80;9.02;;;;;;;11.82;70.88;100661.03;4954074;29;20067;-56
2021/05/29 02:34:02;;;;;;;12.50;8.85;;;;;;;11.82;71.00;100657.56;4955322;28;20623;-56
2021/05/29 02:36:28;;;;;;;14.75;8.73;;;;;;;11.82;71.34;100661.03;4955491;29;20035;-56
2021/05/29 02:38:56;;;;;;;13.55;9.32;;;;;;;11.81;71.30;100663.59;4953727;28;20486;-56
2021/05/29 02:41:22;;;;;;;11.82;8.95;;;;;;;11.81;71.15;100663.59;4954883;28;20035;-56
2021/05/29 02:43:50;;;;;;;14.50;8.93;;;;;;;11.82;71.49;100660.16;4954757;29;20043;-56
2021/05/29 02:46:18;;;;;;;11.32;9.02;;;;;;;11.83;71.20;100654.13;4954652;29;20046;-56
2021/05/29 02:48:46;;;;;;;13.35;9.90;;;;;;;11.82;71.31;100655.81;4955155;28;20126;-57
2021/05/29 02:51:11;;;;;;;16.33;8.75;;;;;;;11.83;71.30;100659.31;4955272;28;20074;-56
2021/05/29 02:53:42;;;;;;;11.38;7.90;;;;;;;11.81;71.15;100659.25;4955098;28;20078;-56
2021/05/29 02:56:08;;;;;;;15.85;9.43;;;;;;;11.81;71.48;100655.81;4955452;28;20039;-57
2021/05/29 02:58:36;;;;;;;13.10;7.90;;;;;;;11.80;71.09;100662.72;4958752;28;20047;-57
2021/05/29 03:01:04;;;;;;;12.88;9.05;;;;;;;11.78;71.42;100653.13;4957616;29;20043;-57
2021/05/29 03:03:32;;;;;;;12.60;8.55;;;;;;;11.78;71.00;100654.00;4958056;29;20531;-56
2021/05/29 03:06:00;;;;;;;13.38;8.68;;;;;;;11.78;71.44;100655.75;4958719;29;20121;-57
2021/05/29 03:08:31;;;;;;;11.07;8.07;;;;;;;11.78;71.09;100653.13;4957632;29;20031;-56
2021/05/29 03:10:59;;;;;;;12.85;9.02;;;;;;;11.78;71.25;100656.59;4958565;28;20043;-56
2021/05/29 03:13:24;;;;;;;15.15;8.95;;;;;;;11.79;71.24;100658.34;4957533;29;20035;-56
2021/05/29 03:15:59;;;;;;;11.40;8.48;;;;;;;11.78;70.99;100656.59;4957225;29;20039;-58
2021/05/29 03:18:28;;;;;;;10.15;8.02;;;;;;;11.79;71.57;100657.50;4958698;29;20035;-58
2021/05/29 03:20:56;;;;;;;13.20;8.07;;;;;;;11.78;71.17;100656.59;4958169;28;20039;-58
2021/05/29 03:23:24;;;;;;;11.77;8.35;;;;;;;11.78;71.05;100660.94;4958552;28;20046;-57
2021/05/29 03:25:49;;;;;;;11.10;8.75;;;;;;;11.78;71.29;100655.75;4958536;28;20509;-56
2021/05/29 03:28:17;;;;;;;12.25;9.00;;;;;;;11.77;71.42;100656.59;4957385;29;20031;-56
2021/05/29 03:30:43;;;;;;;13.98;8.98;;;;;;;11.77;71.12;100666.97;4958322;28;20036;-56
2021/05/29 03:33:11;;;;;;;12.55;9.13;;;;;;;11.77;71.31;100666.97;4958383;28;20102;-56
2021/05/29 03:35:37;;;;;;;15.73;8.60;;;;;;;11.76;71.33;100666.06;4957093;28;20046;-56
2021/05/29 03:38:02;;;;;;;10.48;8.20;;;;;;;11.75;70.91;100666.94;4958025;28;20047;-56
2021/05/29 03:40:28;;;;;;;13.02;8.98;;;;;;;11.74;71.23;100665.19;4956976;28;20521;-57
2021/05/29 03:42:54;;;;;;;11.73;8.73;;;;;;;11.71;71.23;100671.19;4957885;28;20090;-57
2021/05/29 03:45:20;;;;;;;11.70;8.32;;;;;;;11.71;71.00;100678.09;4957244;29;20035;-57
2021/05/29 03:47:49;;;;;;;12.13;8.50;;;;;;;11.69;71.33;100672.84;4956678;29;20399;-56
2021/05/29 03:50:22;;;;;;;12.95;8.32;;;;;;;11.69;70.99;100672.00;4956750;28;20570;-56
2021/05/29 03:52:48;;;;;;;13.60;8.77;;;;;;;11.68;71.37;100675.44;4958031;28;20090;-56
2021/05/29 03:55:20;;;;;;;13.88;8.77;;;;;;;11.69;71.35;100674.59;4957011;29;20039;-56
2021/05/29 03:57:49;;;;;;;11.75;9.38;;;;;;;11.66;71.08;100678.00;4956968;28;20050;-56
2021/05/29 04:00:19;;;;;;;11.95;8.43;;;;;;;11.67;71.14;100684.97;4957832;28;20027;-56
2021/05/29 04:02:45;;;;;;;11.13;9.50;;;;;;;11.68;71.18;100678.03;4957935;28;20365;-57
2021/05/29 04:05:14;;;;;;;14.95;9.27;;;;;;;11.69;70.96;100679.78;4956381;29;20126;-57
2021/05/29 04:07:43;;;;;;;11.30;8.30;;;;;;;11.67;71.27;100679.78;4956118;28;20125;-56
2021/05/29 04:10:14;;;;;;;14.57;8.88;;;;;;;11.69;70.96;100690.19;4956057;29;20035;-56
2021/05/29 04:12:41;;;;;;;12.32;9.27;;;;;;;11.69;71.55;100691.03;4958018;28;20042;-57
2021/05/29 04:15:09;;;;;;;13.30;7.53;;;;;;;11.70;71.13;100681.53;4940618;29;20523;-57
2021/05/29 04:17:40;;;;;;;12.30;8.75;;;;;;;11.70;71.43;100686.75;4957428;28;20031;-57
2021/05/29 04:20:08;;;;;;;14.65;9.13;;;;;;;11.69;71.31;100683.25;4957860;29;20304;-56
2021/05/29 04:22:36;;;;;;;11.02;8.13;;;;;;;11.70;71.13;100686.75;4956215;29;20046;-56
2021/05/29 04:25:08;;;;;;;12.23;7.90;;;;;;;11.70;70.93;100691.94;4957362;28;20046;-56
2021/05/29 04:27:34;;;;;;;12.25;8.57;;;;;;;11.69;71.17;100691.03;4957485;28;20050;-56
2021/05/29 04:30:05;;;;;;;9.98;8.48;;;;;;;11.69;71.17;100692.78;4957393;28;20376;-56
2021/05/29 04:32:30;;;;;;;15.00;9.32;;;;;;;11.70;71.28;100691.94;4957300;28;20035;-57
2021/05/29 04:35:02;;;;;;;12.23;9.45;;;;;;;11.69;71.49;100691.03;4957503;28;20047;-57
2021/05/29 04:37:27;;;;;;;10.73;8.95;;;;;;;11.69;71.12;100695.38;4940058;29;20035;-56
2021/05/29 04:39:55;;;;;;;9.73;8.48;;;;;;;11.69;71.05;100692.78;4955943;28;20138;-57
2021/05/29 04:42:21;;;;;;;12.32;9.10;;;;;;;11.69;71.37;100690.19;4955951;28;20076;-57
2021/05/29 04:44:47;;;;;;;14.02;8.70;;;;;;;11.69;71.28;100695.38;4957170;28;20520;-56
2021/05/29 04:47:15;;;;;;;10.63;8.75;;;;;;;11.70;71.11;100697.13;4957015;28;20062;-57
2021/05/29 04:49:40;;;;;;;13.95;9.05;;;;;;;11.69;70.99;100703.16;4939703;29;20384;-57
2021/05/29 04:52:08;;;;;;;10.75;9.30;;;;;;;11.68;71.13;100699.66;4956815;28;20046;-57
2021/05/29 04:54:34;;;;;;;13.68;9.25;;;;;;;11.69;71.27;100697.97;4956980;28;20036;-56
2021/05/29 04:57:03;;;;;;;12.90;9.25;;;;;;;11.68;71.20;100699.66;4956753;28;20031;-57
2021/05/29 04:59:29;;;;;;;10.40;8.50;;;;;;;11.69;71.08;100698.81;4956365;28;20043;-56
2021/05/29 05:01:59;;;;;;;13.60;8.52;;;;;;;11.68;71.60;100699.66;4956903;28;20372;-57
2021/05/29 05:04:27;;;;;;;10.50;8.23;;;;;;;11.69;71.50;100700.56;4956047;29;20263;-57
2021/05/29 05:06:52;;;;;;;13.38;8.50;;;;;;;11.68;71.32;100702.25;4939768;29;20071;-56
2021/05/29 05:09:18;;;;;;;9.30;8.32;;;;;;;11.68;70.99;100701.41;4956323;28;20491;-56
2021/05/29 05:11:43;;;;;;;19.50;10.63;;;;;;;11.69;71.19;100710.94;4955466;28;20042;-56
2021/05/29 05:14:09;;;;;;;14.23;8.80;;;;;;;11.68;71.18;100710.06;4955524;28;20035;-57
2021/05/29 05:16:34;;;;;;;10.52;8.27;;;;;;;11.69;71.34;100714.41;4956281;29;20042;-56
2021/05/29 05:19:03;;;;;;;10.90;9.02;;;;;;;11.68;70.96;100717.84;4954991;28;20067;-57
2021/05/29 05:21:31;;;;;;;12.45;10.05;;;;;;;11.69;71.14;100713.53;4957058;28;20043;-56
2021/05/29 05:23:59;;;;;;;13.55;9.23;;;;;;;11.70;71.10;100712.69;4956404;28;20035;-56
2021/05/29 05:26:27;;;;;;;11.00;7.97;;;;;;;11.70;71.44;100710.09;4956612;28;20129;-57
2021/05/29 05:28:53;;;;;;;11.75;8.85;;;;;;;11.71;71.24;100717.91;4955935;28;20038;-57
2021/05/29 05:31:19;;;;;;;11.40;8.05;;;;;;;11.71;71.24;100714.47;4956438;28;20039;-56
2021/05/29 05:33:48;;;;;;;13.32;9.10;;;;;;;11.72;71.53;100716.22;4956335;28;20037;-57
2021/05/29 05:36:14;;;;;;;12.30;8.65;;;;;;;11.71;71.68;100719.66;4956035;28;20126;-57
2021/05/29 05:38:45;;;;;;;12.20;8.40;;;;;;;11.70;71.41;100723.94;4955071;28;20114;-56
2021/05/29 05:41:10;;;;;;;10.45;7.30;;;;;;;11.69;71.24;100731.72;4955716;28;20043;-56
2021/05/29 05:43:36;;;;;;;14.68;8.45;;;;;;;11.69;71.01;100731.72;4955973;28;20053;-56
2021/05/29 05:46:02;;;;;;;14.55;8.40;;;;;;;11.68;70.89;100733.41;4955799;28;20082;-57
2021/05/29 05:48:31;;;;;;;12.48;8.60;;;;;;;11.69;71.13;100742.09;4955994;28;20027;-57
2021/05/29 05:50:58;;;;;;;11.52;8.82;;;;;;;11.71;71.56;100753.41;4956335;28;20047;-57
2021/05/29 05:53:26;;;;;;;13.05;8.07;;;;;;;11.71;71.16;100751.66;4955901;28;20071;-57
2021/05/29 05:55:57;;;;;;;13.93;8.75;;;;;;;11.71;71.30;100749.06;4954236;28;20047;-56
2021/05/29 05:58:22;;;;;;;11.27;7.05;;;;;;;11.71;71.49;100754.28;4939039;29;20479;-56
2021/05/29 06:00:48;;;;;;;13.13;7.95;;;;;;;11.73;71.50;100759.53;4956083;28;20123;-56
2021/05/29 06:03:19;;;;;;;12.30;8.07;;;;;;;11.73;71.11;100770.75;4954305;29;20117;-56
2021/05/29 06:05:48;;;;;;;10.30;7.82;;;;;;;11.72;71.55;100763.81;4954424;28;20035;-58
2021/05/29 06:08:15;;;;;;;17.92;7.95;;;;;;;11.73;71.60;100764.72;4955140;28;20038;-58
2021/05/29 06:10:41;;;;;;;11.40;7.97;;;;;;;11.73;71.71;100770.75;4955518;28;20039;-58
2021/05/29 06:13:12;;;;;;;14.93;8.88;;;;;;;11.73;71.17;100764.72;4954338;28;20038;-58
2021/05/29 06:18:52;;;;;;;11.38;8.55;;;;;;;11.74;71.00;100776.84;4955606;29;20039;-58
2021/05/29 06:21:13;;;;;;;14.13;8.45;;;;;;;11.75;71.09;100772.53;4953994;29;20047;-58
2021/05/29 06:23:38;;;;;;;12.02;8.63;;;;;;;11.76;71.21;100777.75;4954034;28;20039;-56
2021/05/29 06:26:04;;;;;;;14.75;8.75;;;;;;;11.75;71.32;100780.31;4955412;28;20039;-56
2021/05/29 06:28:30;;;;;;;14.75;7.60;;;;;;;11.74;70.98;100782.06;4955255;28;20035;-58
2021/05/29 06:30:56;;;;;;;15.52;8.07;;;;;;;11.76;71.28;100790.72;4954938;28;20078;-58
2021/05/29 06:33:21;;;;;;;15.20;9.20;;;;;;;11.75;71.31;100778.59;4954329;28;20035;-58
2021/05/29 06:35:47;;;;;;;12.88;7.20;;;;;;;11.77;71.08;100783.81;4953706;28;20443;-58
2021/05/29 06:38:12;;;;;;;14.82;8.60;;;;;;;11.77;71.25;100782.09;4955169;28;20539;-58
2021/05/29 06:40:38;;;;;;;15.27;8.70;;;;;;;11.78;71.21;100786.44;4955193;28;20046;-58
2021/05/29 06:43:03;;;;;;;14.52;9.35;;;;;;;11.79;71.56;100782.16;4954058;28;20487;-58
2021/05/29 06:45:31;;;;;;;14.98;7.93;;;;;;;11.78;71.39;100783.84;4954136;28;20078;-58
2021/05/29 06:47:59;;;;;;;13.13;8.60;;;;;;;11.79;71.19;100789.94;4955165;28;20063;-58
2021/05/29 06:50:25;;;;;;;10.43;7.88;;;;;;;11.79;71.33;100787.34;4954939;28;20122;-58
2021/05/29 06:52:55;;;;;;;13.75;8.85;;;;;;;11.79;71.28;100796.00;4955728;28;20122;-58
2021/05/29 07:00:54;;;;;;;12.90;7.72;;;;;;;11.79;71.31;100808.13;4955047;29;20505;-58
2021/05/29 07:03:20;;;;;;;12.55;8.35;;;;;;;11.80;71.08;100807.28;4955342;28;20048;-56
2021/05/29 07:05:47;;;;;;;13.25;8.25;;;;;;;11.80;71.45;100802.09;4955126;28;20035;-56
2021/05/29 07:08:13;;;;;;;13.18;8.05;;;;;;;11.81;71.50;100806.44;4953498;28;20042;-56
2021/05/29 07:10:38;;;;;;;9.70;7.72;;;;;;;11.81;71.01;100801.25;4954916;28;20507;-56
2021/05/29 07:13:09;;;;;;;11.18;7.78;;;;;;;11.82;71.12;100803.88;4955011;29;20064;-56
2021/05/29 07:15:38;;;;;;;11.88;7.80;;;;;;;11.82;71.11;100808.19;4953324;29;20120;-56
2021/05/29 07:18:10;;;;;;;13.65;8.27;;;;;;;11.82;71.15;100809.06;4955237;28;20047;-58
2021/05/29 07:20:36;;;;;;;12.10;8.38;;;;;;;11.83;71.03;100807.34;4954863;28;20035;-58
2021/05/29 07:23:02;;;;;;;11.45;8.52;;;;;;;11.84;71.50;100809.09;4954535;28;20126;-58
2021/05/29 07:25:30;;;;;;;9.98;7.85;;;;;;;11.84;71.28;100817.75;4953943;28;20086;-56
2021/05/29 07:27:56;;;;;;;9.82;7.03;;;;;;;11.82;71.47;100809.06;4937560;29;20051;-58
2021/05/29 07:30:23;;;;;;;11.88;7.00;;;;;;;11.84;71.44;100820.38;4954673;28;20041;-58
2021/05/29 07:32:51;;;;;;;11.75;7.00;;;;;;;11.85;71.16;100816.94;4954654;28;20035;-58
2021/05/29 07:35:21;;;;;;;9.88;6.93;;;;;;;11.87;71.25;100824.75;4954733;28;20043;-58
2021/05/29 07:37:46;;;;;;;9.35;7.03;;;;;;;11.87;71.35;100827.34;4954933;28;20043;-56
2021/05/29 07:40:14;;;;;;;12.25;7.85;;;;;;;11.87;71.18;100819.53;4954878;29;20050;-56
2021/05/29 07:42:44;;;;;;;10.80;7.32;;;;;;;11.87;71.13;100820.44;4953547;28;20059;-56
2021/05/29 07:45:10;;;;;;;10.48;6.95;;;;;;;11.89;71.08;100825.66;4958482;28;20170;-56
2021/05/29 07:47:39;;;;;;;10.50;7.07;;;;;;;11.89;71.42;100817.88;4958147;28;20039;-56
2021/05/29 07:50:06;;;;;;;12.02;6.80;;;;;;;11.91;70.98;100817.91;4958050;28;20487;-56
2021/05/29 07:52:37;;;;;;;9.23;7.55;;;;;;;11.92;71.50;100817.03;4957124;29;20157;-56
2021/05/29 07:55:07;;;;;;;12.90;7.13;;;;;;;11.93;71.00;100824.00;4958147;28;20109;-56
2021/05/29 07:57:38;;;;;;;10.73;7.60;;;;;;;11.94;71.46;100828.34;4956608;29;20043;-58
2021/05/29 08:00:15;;;;;;;9.98;7.45;;;;;;;11.93;71.09;100824.91;4958372;29;20138;-56
2021/05/29 08:02:43;;;;;;;10.52;7.20;;;;;;;11.95;71.43;100819.72;4956707;29;20051;-58
2021/05/29 08:05:16;;;;;;;11.63;7.72;;;;;;;11.95;71.50;100824.91;4957892;28;20039;-58
2021/05/29 08:07:41;;;;;;;13.38;8.35;;;;;;;11.96;71.44;100826.69;4957765;28;20067;-57
2021/05/29 08:10:16;;;;;;;12.75;8.80;;;;;;;11.96;71.21;100827.56;4957498;29;20073;-57
2021/05/29 08:12:47;;;;;;;9.45;7.53;;;;;;;11.97;71.36;100824.13;4958183;28;20078;-56
2021/05/29 08:15:23;;;;;;;8.93;7.25;;;;;;;11.97;71.25;100831.03;4957673;28;20086;-58
2021/05/29 08:17:54;;;;;;;9.40;7.80;;;;;;;11.99;71.20;100831.97;4956616;29;20035;-58
2021/05/29 08:20:25;;;;;;;12.90;8.52;;;;;;;12.00;71.04;100831.13;4957656;28;20046;-58
2021/05/29 08:22:56;;;;;;;11.68;9.27;;;;;;;12.01;71.22;100835.50;4956974;29;20050;-58
2021/05/29 08:25:28;;;;;;;12.65;7.90;;;;;;;12.02;71.47;100832.06;4956301;29;20043;-58
2021/05/29 08:27:59;;;;;;;12.13;8.05;;;;;;;12.01;71.10;100828.56;4957563;28;20035;-58
2021/05/29 08:30:28;;;;;;;8.55;7.53;;;;;;;12.03;71.26;100842.47;4957241;28;20035;-58
2021/05/29 08:33:01;;;;;;;11.20;7.93;;;;;;;12.03;71.11;100842.47;4957214;28;20126;-58
2021/05/29 08:35:36;;;;;;;10.65;7.80;;;;;;;12.05;71.06;100842.53;4957068;28;20063;-57
2021/05/29 08:38:07;;;;;;;9.38;7.85;;;;;;;12.05;71.24;100842.53;4957311;28;20046;-58
2021/05/29 08:40:34;;;;;;;9.73;7.63;;;;;;;12.07;71.14;100845.16;4954963;28;20031;-58
2021/05/29 08:43:00;;;;;;;8.60;6.68;;;;;;;12.08;71.18;100849.50;4938815;29;20042;-58
2021/05/29 08:45:32;;;;;;;11.68;8.73;;;;;;;12.09;71.40;100853.84;4957003;28;20035;-58
2021/05/29 08:48:00;;;;;;;11.63;8.30;;;;;;;12.11;71.02;100846.97;4955382;29;20533;-57
2021/05/29 08:51:12;;;;;;;9.18;7.93;;;;;;;12.11;71.28;100853.03;4956254;28;20499;-58
2021/05/29 08:53:25;;;;;;;11.07;7.43;;;;;;;12.12;71.05;100854.78;4956803;29;20487;-57
2021/05/29 08:55:59;;;;;;;13.82;7.72;;;;;;;12.15;70.92;100848.78;4939177;29;20043;-57
2021/05/29 08:58:34;;;;;;;9.32;7.22;;;;;;;12.15;71.31;100851.38;4957002;28;20070;-57
2021/05/29 09:01:07;;;;;;;7.57;6.40;;;;;;;12.15;70.85;100849.66;4956039;29;20042;-57
2021/05/29 09:03:50;;;;;;;9.85;6.65;;;;;;;12.16;70.85;100850.53;4956228;29;20478;-57
2021/05/29 09:06:41;;;;;;;8.88;6.50;;;;;;;12.17;70.81;100849.69;4956461;28;20042;-58
2021/05/29 09:09:12;;;;;;;8.75;7.00;;;;;;;12.18;71.12;100851.44;4956686;28;20051;-57
2021/05/29 09:11:48;;;;;;;8.98;7.00;;;;;;;12.21;70.65;100858.47;4939680;29;20035;-57
2021/05/29 09:17:18;;;;;;;8.05;6.57;;;;;;;12.23;70.71;100860.25;4956492;28;20122;-57
2021/05/29 09:20:06;;;;;;;8.68;6.93;;;;;;;12.23;70.67;100854.16;4956179;28;20539;-57
2021/05/29 09:22:38;;;;;;;9.68;5.72;;;;;;;12.25;70.89;100861.16;4955422;29;20035;-57
2021/05/29 09:25:16;;;;;;;7.60;6.00;;;;;;;12.27;70.70;100868.97;4955491;29;20039;-58
2021/05/29 09:28:05;;;;;;;10.70;5.95;;;;;;;12.26;70.82;100860.31;4956416;28;20170;-58
2021/05/29 09:30:51;;;;;;;9.90;6.00;;;;;;;12.29;70.62;100862.09;4956331;28;20416;-58
2021/05/29 09:33:20;;;;;;;7.68;6.40;;;;;;;12.30;70.93;100866.44;4955001;29;20043;-57
2021/05/29 09:36:05;;;;;;;13.93;6.53;;;;;;;12.32;70.61;100867.34;4954812;29;20035;-57
2021/05/29 09:38:50;;;;;;;7.68;5.45;;;;;;;12.33;70.50;100866.53;4955831;29;20074;-57
2021/05/29 09:41:32;;;;;;;8.40;5.80;;;;;;;12.33;70.70;100871.72;4956257;28;20130;-57
2021/05/29 09:44:04;;;;;;;7.07;5.43;;;;;;;12.33;70.62;100869.97;4954718;29;20511;-58
2021/05/29 09:46:52;;;;;;;9.27;6.45;;;;;;;12.34;70.88;100874.34;4955076;29;20031;-57
2021/05/29 09:49:27;;;;;;;6.13;5.10;;;;;;;12.35;70.50;100870.03;4955788;28;20561;-57
2021/05/29 09:51:53;;;;;;;5.97;4.40;;;;;;;12.36;70.67;100874.38;4954811;29;20522;-57
2021/05/29 09:54:25;;;;;;;11.68;5.63;;;;;;;12.37;70.58;100868.34;4955000;28;20035;-58
2021/05/29 09:57:04;;;;;;;6.80;5.30;;;;;;;12.38;70.55;100872.69;4939439;29;20039;-57
2021/05/29 09:59:35;;;;;;;8.82;5.45;;;;;;;12.38;70.33;100870.06;4956071;28;20133;-57
2021/05/29 10:02:10;;;;;;;6.85;5.38;;;;;;;12.40;70.27;100878.78;4954656;28;20051;-58
2021/05/29 10:04:43;;;;;;;6.55;4.22;;;;;;;12.42;70.51;100876.25;4955904;28;20083;-57
2021/05/29 10:07:13;;;;;;;6.15;4.82;;;;;;;12.41;70.48;100874.47;4955056;28;20035;-58
2021/05/29 10:09:45;;;;;;;4.05;3.63;;;;;;;12.43;70.19;100878.00;4955627;28;20043;-58
2021/05/29 10:12:16;;;;;;;5.53;3.97;;;;;;;12.42;70.35;100879.72;4955851;28;20554;-58
2021/05/29 10:14:47;;;;;;;5.22;3.60;;;;;;;12.42;70.17;100877.09;4955363;28;20110;-57
2021/05/29 10:17:27;;;;;;;9.52;3.50;;;;;;;12.41;69.88;100877.09;4955166;28;20043;-58
2021/05/29 10:19:58;;;;;;;6.88;3.42;;;;;;;12.42;70.08;100879.72;4954494;29;20094;-57
2021/05/29 10:22:30;;;;;;;5.20;3.33;;;;;;;12.42;70.04;100876.25;4955353;28;20035;-57
2021/05/29 10:25:21;;;;;;;4.88;3.67;;;;;;;12.42;69.99;100882.31;4955529;28;20035;-58
2021/05/29 10:27:56;;;;;;;4.30;3.67;;;;;;;12.43;69.89;100878.00;4954824;28;20059;-58
2021/05/29 10:30:32;;;;;;;7.55;3.53;;;;;;;12.44;69.86;100879.75;4954094;29;20398;-58
2021/05/29 10:33:17;;;;;;;5.28;3.58;;;;;;;12.43;69.76;100878.00;4955525;28;20097;-58
2021/05/29 10:35:46;;;;;;;4.20;3.80;;;;;;;12.45;69.58;100873.72;4955484;28;20062;-57
2021/05/29 10:38:21;;;;;;;6.53;4.25;;;;;;;12.58;69.61;100875.72;4955274;28;20069;-55
2021/05/29 10:40:53;;;;;;;448.88;35.65;;;;;;;12.74;69.17;100874.31;4955840;28;20046;-55
2021/05/29 10:43:23;;;;;;;213.48;22.02;;;;;;;12.85;68.68;100873.63;4954716;29;20066;-55
2021/05/29 10:45:55;;;;;;;82.07;8.63;;;;;;;12.96;68.16;100879.94;4955487;28;20043;-55
2021/05/29 10:48:32;;;;;;;37.60;4.90;;;;;;;13.04;67.91;100873.16;4954204;29;20035;-55
2021/05/29 10:51:13;;;;;;;19.65;4.03;;;;;;;13.08;68.04;100877.56;4955027;28;20425;-55
2021/05/29 10:53:53;;;;;;;11.88;3.72;;;;;;;13.14;67.80;100874.22;4955193;29;20031;-55
2021/05/29 10:56:22;;;;;;;10.00;4.82;;;;;;;13.19;67.24;100861.28;4955227;28;20039;-55
2021/05/29 10:59:28;;;;;;;7.30;3.45;;;;;;;13.25;67.62;100871.81;4955249;28;20042;-55
2021/05/29 11:01:55;;;;;;;6.90;3.35;;;;;;;13.30;67.69;100861.47;4955084;28;20058;-55
2021/05/29 11:04:29;;;;;;;6.65;3.67;;;;;;;13.31;67.30;100858.03;4955032;28;20395;-55
2021/05/29 11:07:30;;;;;;;5.95;3.72;;;;;;;13.35;67.16;100865.03;4954954;28;20046;-55
2021/05/29 11:10:03;;;;;;;6.70;3.63;;;;;;;13.37;67.04;100859.00;4955528;28;20043;-55
2021/05/29 11:13:06;;;;;;;8.18;3.55;;;;;;;13.42;66.82;100863.47;4955139;28;20043;-56
2021/05/29 11:15:54;;;;;;;7.00;3.60;;;;;;;13.44;66.77;100862.63;4945489;28;20039;-55
2021/05/29 11:18:22;;;;;;;7.63;3.17;;;;;;;13.49;66.74;100850.56;4957229;28;20071;-55
2021/05/29 11:21:05;;;;;;;4.78;2.78;;;;;;;13.53;66.07;100854.09;4958514;28;20093;-55
2021/05/29 11:23:33;;;;;;;4.88;3.08;;;;;;;13.53;66.45;100857.59;4958485;28;20101;-55
2021/05/29 11:26:07;;;;;;;4.60;3.20;;;;;;;13.51;66.63;100859.28;4958108;28;20110;-55
2021/05/29 11:28:32;;;;;;;4.88;2.80;;;;;;;13.52;66.55;100855.84;4957144;29;20048;-55
2021/05/29 11:31:01;;;;;;;4.57;2.95;;;;;;;13.53;66.33;100852.38;4958384;28;20031;-55
2021/05/29 11:33:29;;;;;;;3.42;2.20;;;;;;;13.53;66.12;100846.28;4958242;28;20039;-54
2021/05/29 11:36:12;;;;;;;5.38;3.85;;;;;;;13.57;66.19;100855.00;4942467;29;20491;-55
2021/05/29 11:38:42;;;;;;;4.70;3.72;;;;;;;13.62;66.09;100858.59;4958347;28;20047;-55
2021/05/29 11:41:20;;;;;;;6.40;4.03;;;;;;;13.64;66.23;100856.88;4958290;28;20031;-55
2021/05/29 11:43:54;;;;;;;4.60;4.07;;;;;;;13.65;66.05;100861.25;4957325;29;20043;-55